Strona główna
METAR-TAF:

METAR-TAF

Lotnisko :

Male, Malediwy

Port lotniczy Male

Szerokość geograficzna: 04-12N, Długość geograficzna: 073-32E, wysokość: 2 m

Aktualna obserwacja pogody

Raport powstał 31 minut temu, godzina 05:00 UTC
Wiatr 11 kt od wschodnio-północny wschód
Temperatura 30°C
Wilgotność 66%
Ciśnienie 1012 hPa
Widzialność: 6000 m
Mało chmury na wysokości 1800 ft

METAR: VRMM 180500Z 07011KT 6000 FEW018 30/23 Q1012 NOSIG

czas: 10:31 (05:31 UTC)

Prognoza

Raport powstał 6 godziny i 31 minut temu, godzina 23:00 UTC
Prognoza ważna od 18 godzina 00 UTC do 19 godzina 06 UTC
Wiatr 12 kt od wschodnio-północny wschód
Widzialność: 8000 m
Mało chmury na wysokości 1800 ft
Przejściowo
od 18 godzina 00 UTC do 18 godzina 06 UTC
Mało chmury na wysokości 1800 ft, Cumulonimbus.

TAF: VRMM 172300Z 1800/1906 06012KT 8000 FEW018 TEMPO 1800/1806 FEW018CB

Obserwacja i prognoza pogody dla ponad 4000 lotnisk (raport METAR i TAF).

Dostępne stacje oznaczono żółtymi i czerwonymi punktami na mapie.

Najedź kursorem aby zobaczyć nazwę stacji.

Kliknij aby zobaczyć obserwacje i prognozy pogody.

Aby zmienić mapę: kliknij na zielony przycisk z czarnym krzyżykiem, aby powiększyć; na zielony przycisk z myślnikiem, aby pomniejszyć; na zielone strzałki, aby przejść do map sąsiednich.


METAR-TAF: